Time;durP1;ratioP1;P1;durP2;ratioP2;P2;SDS_P1;SDS_P2;PMS_P1;PMS_P2;Temp;Humidity;BMP_temperature;BMP_pressure;BME280_temperature;BME280_humidity;BME280_pressure;Samples;Min_cycle;Max_cycle;Signal;HPM_P1;HPM_P2
2022/12/12 00:00:00;;;;;;;40.10;17.25;;;;;;;;;;5053834;28;20037;-76
2022/12/12 00:02:26;;;;;;;36.58;15.75;;;;;;;;;;5052836;28;20505;-77
2022/12/12 00:04:56;;;;;;;37.70;16.17;;;;;;;;;;5052158;28;20045;-77
2022/12/12 00:07:22;;;;;;;40.45;16.27;;;;;;;;;;5052668;28;20435;-77
2022/12/12 00:09:48;;;;;;;38.38;16.52;;;;;;;;;;5052209;28;20387;-76
2022/12/12 00:12:14;;;;;;;38.97;16.95;;;;;;;;;;5052332;28;20041;-78
2022/12/12 00:14:40;;;;;;;39.15;17.08;;;;;;;;;;5035256;28;20037;-77
2022/12/12 00:17:06;;;;;;;40.88;17.17;;;;;;;;;;5052300;28;20043;-77
2022/12/12 00:19:32;;;;;;;39.58;16.75;;;;;;;;;;5053522;28;20048;-77
2022/12/12 00:21:58;;;;;;;40.95;16.60;;;;;;;;;;5052337;28;20446;-77
2022/12/12 00:24:24;;;;;;;40.53;17.33;;;;;;;;;;5052319;28;20481;-77
2022/12/12 00:26:50;;;;;;;40.22;16.40;;;;;;;;;;5053361;28;20511;-77
2022/12/12 00:29:16;;;;;;;41.03;17.42;;;;;;;;;;5052335;28;20040;-77
2022/12/12 00:31:42;;;;;;;44.78;17.27;;;;;;;;;;5051895;28;20258;-77
2022/12/12 00:34:08;;;;;;;39.03;17.48;;;;;;;;;;5052090;28;20371;-77
2022/12/12 00:36:34;;;;;;;39.80;17.55;;;;;;;;;;5051633;28;20036;-77
2022/12/12 00:39:00;;;;;;;41.30;16.88;;;;;;;;;;5051556;28;20081;-77
2022/12/12 00:41:27;;;;;;;42.47;17.15;;;;;;;;;;5051714;28;20037;-77
2022/12/12 00:43:53;;;;;;;41.65;17.88;;;;;;;;;;5051364;28;20041;-77
2022/12/12 00:46:21;;;;;;;40.78;17.60;;;;;;;;;;5035089;28;20048;-77
2022/12/12 00:48:47;;;;;;;39.35;17.42;;;;;;;;;;5051316;28;20040;-77
2022/12/12 00:51:17;;;;;;;40.80;16.95;;;;;;;;;;5051354;28;20128;-77
2022/12/12 00:53:43;;;;;;;40.72;16.63;;;;;;;;;;5051381;28;20056;-77
2022/12/12 00:56:09;;;;;;;40.75;16.83;;;;;;;;;;5051730;28;20053;-77
2022/12/12 00:58:35;;;;;;;41.55;16.40;;;;;;;;;;5034922;28;20063;-77
2022/12/12 01:01:07;;;;;;;38.80;16.67;;;;;;;;;;5051027;28;20049;-77
2022/12/12 01:03:33;;;;;;;40.10;16.23;;;;;;;;;;5053067;28;20455;-77
2022/12/12 01:05:59;;;;;;;37.92;15.93;;;;;;;;;;5052485;28;20041;-77
2022/12/12 01:08:25;;;;;;;37.75;16.35;;;;;;;;;;5051202;28;20053;-77
2022/12/12 01:10:52;;;;;;;38.00;15.75;;;;;;;;;;5034144;28;20092;-77
2022/12/12 01:13:18;;;;;;;38.75;17.20;;;;;;;;;;5051172;28;20048;-77
2022/12/12 01:15:44;;;;;;;35.88;15.88;;;;;;;;;;5050546;28;20040;-77
2022/12/12 01:18:10;;;;;;;36.88;16.15;;;;;;;;;;5051198;28;20040;-77
2022/12/12 01:20:36;;;;;;;41.33;17.35;;;;;;;;;;5050777;28;20068;-77
2022/12/12 01:23:02;;;;;;;38.80;16.70;;;;;;;;;;5050799;28;20047;-76
2022/12/12 01:25:28;;;;;;;35.60;15.15;;;;;;;;;;5068036;28;20124;-77
2022/12/12 01:27:54;;;;;;;37.88;16.15;;;;;;;;;;5050949;28;20512;-77
2022/12/12 01:30:21;;;;;;;37.65;15.90;;;;;;;;;;5051161;28;20049;-77
2022/12/12 01:32:48;;;;;;;34.78;15.18;;;;;;;;;;5034060;28;20068;-77
2022/12/12 01:35:14;;;;;;;39.00;16.48;;;;;;;;;;5040390;28;20549;-77
2022/12/12 01:37:40;;;;;;;39.88;16.83;;;;;;;;;;5050923;28;20130;-76
2022/12/12 01:40:08;;;;;;;35.72;15.55;;;;;;;;;;5050855;28;20053;-77
2022/12/12 01:42:35;;;;;;;36.75;16.63;;;;;;;;;;5051274;28;20474;-77
2022/12/12 01:45:01;;;;;;;42.45;16.60;;;;;;;;;;5050550;28;20040;-76
2022/12/12 01:47:27;;;;;;;39.33;16.15;;;;;;;;;;5052234;28;20504;-76
2022/12/12 01:50:04;;;;;;;38.42;16.40;;;;;;;;;;5084067;28;20048;-77
2022/12/12 01:52:34;;;;;;;37.60;15.82;;;;;;;;;;5050764;28;20037;-77
2022/12/12 01:55:02;;;;;;;41.00;17.38;;;;;;;;;;5050473;28;20037;-77
2022/12/12 01:57:30;;;;;;;36.42;15.55;;;;;;;;;;5034484;28;20041;-77
2022/12/12 01:59:58;;;;;;;37.72;16.17;;;;;;;;;;5051672;28;20041;-77
2022/12/12 02:02:24;;;;;;;42.25;16.77;;;;;;;;;;5051922;28;20390;-77
2022/12/12 02:04:50;;;;;;;39.33;16.70;;;;;;;;;;5051269;28;20041;-77
2022/12/12 02:07:17;;;;;;;38.72;16.45;;;;;;;;;;5056794;28;20040;-77
2022/12/12 02:09:43;;;;;;;38.22;16.50;;;;;;;;;;5059182;28;20069;-76
2022/12/12 02:12:13;;;;;;;42.50;17.75;;;;;;;;;;5058013;28;20658;-77
2022/12/12 02:14:45;;;;;;;42.67;17.25;;;;;;;;;;5065027;28;20040;-76
2022/12/12 02:17:31;;;;;;;40.65;16.65;;;;;;;;;;5071456;28;20119;-77
2022/12/12 02:20:00;;;;;;;40.72;17.38;;;;;;;;;;5070481;28;20513;-77
2022/12/12 02:22:32;;;;;;;42.78;17.40;;;;;;;;;;5073684;28;20397;-77
2022/12/12 02:25:10;;;;;;;42.58;16.98;;;;;;;;;;5060295;28;20037;-77
2022/12/12 02:27:45;;;;;;;38.85;17.40;;;;;;;;;;5049062;28;20041;-77
2022/12/12 02:30:22;;;;;;;43.67;16.57;;;;;;;;;;5074034;28;20044;-76
2022/12/12 02:32:48;;;;;;;39.88;16.63;;;;;;;;;;5074516;28;20120;-77
2022/12/12 02:35:35;;;;;;;43.47;17.13;;;;;;;;;;5088840;28;20068;-77
2022/12/12 02:38:19;;;;;;;38.70;16.35;;;;;;;;;;5073443;28;20089;-77
2022/12/12 02:41:04;;;;;;;39.38;16.48;;;;;;;;;;5070555;28;20072;-76
2022/12/12 02:43:49;;;;;;;39.42;17.10;;;;;;;;;;5082914;28;20048;-77
2022/12/12 02:46:27;;;;;;;41.70;17.33;;;;;;;;;;5046978;28;20507;-77
2022/12/12 02:48:53;;;;;;;37.42;16.85;;;;;;;;;;5073661;28;20117;-77
2022/12/12 02:51:20;;;;;;;38.22;16.17;;;;;;;;;;5074072;28;20036;-77
2022/12/12 02:53:46;;;;;;;37.72;16.75;;;;;;;;;;5075086;28;20035;-76
2022/12/12 02:56:31;;;;;;;37.88;16.10;;;;;;;;;;5057105;28;20032;-77
2022/12/12 02:58:57;;;;;;;42.50;17.35;;;;;;;;;;5074848;28;20080;-76
2022/12/12 03:01:33;;;;;;;38.08;16.88;;;;;;;;;;5064176;28;20048;-77
2022/12/12 03:09:36;;;;;;;38.97;16.55;;;;;;;;;;5057253;28;20079;-76
2022/12/12 03:12:12;;;;;;;44.38;16.88;;;;;;;;;;5053572;28;20124;-77
2022/12/12 03:14:48;;;;;;;38.65;16.08;;;;;;;;;;5067557;28;20044;-76
2022/12/12 03:17:17;;;;;;;36.00;15.98;;;;;;;;;;5061444;28;20044;-77
2022/12/12 03:19:45;;;;;;;40.85;16.75;;;;;;;;;;5073208;28;20580;-77
2022/12/12 03:22:23;;;;;;;36.38;16.42;;;;;;;;;;5073214;28;20519;-77
2022/12/12 03:24:57;;;;;;;35.97;15.77;;;;;;;;;;5073113;28;20129;-77
2022/12/12 03:27:27;;;;;;;34.00;15.90;;;;;;;;;;5073336;28;20392;-77
2022/12/12 03:29:59;;;;;;;32.13;14.35;;;;;;;;;;5106986;28;20125;-77
2022/12/12 03:32:28;;;;;;;35.22;15.73;;;;;;;;;;5074389;28;20473;-77
2022/12/12 03:35:02;;;;;;;35.65;15.98;;;;;;;;;;5072329;28;20044;-77
2022/12/12 03:37:33;;;;;;;36.35;14.70;;;;;;;;;;5046882;28;20051;-77
2022/12/12 03:40:03;;;;;;;36.17;15.48;;;;;;;;;;5072809;28;20076;-77
2022/12/12 03:42:38;;;;;;;32.33;15.10;;;;;;;;;;5073237;28;20044;-77
2022/12/12 03:45:11;;;;;;;36.35;15.60;;;;;;;;;;5072761;28;20500;-76
2022/12/12 03:47:40;;;;;;;38.95;15.85;;;;;;;;;;5072629;28;20033;-76
2022/12/12 03:50:13;;;;;;;32.67;14.85;;;;;;;;;;5072483;28;20037;-77
2022/12/12 03:52:51;;;;;;;34.50;15.48;;;;;;;;;;5072938;28;20485;-77
2022/12/12 03:55:24;;;;;;;34.80;15.55;;;;;;;;;;5072198;28;20080;-77
2022/12/12 03:57:54;;;;;;;35.17;15.10;;;;;;;;;;5039592;28;20123;-76
2022/12/12 04:00:20;;;;;;;37.95;16.02;;;;;;;;;;5065755;28;20047;-77
2022/12/12 04:02:54;;;;;;;34.97;15.98;;;;;;;;;;5068411;28;20029;-77
2022/12/12 04:05:25;;;;;;;31.92;15.02;;;;;;;;;;5064636;28;20041;-77
2022/12/12 04:07:54;;;;;;;39.50;15.55;;;;;;;;;;5067381;28;20485;-77
2022/12/12 04:13:09;;;;;;;32.15;14.95;;;;;;;;;;5058200;28;20048;-77
2022/12/12 04:15:46;;;;;;;32.80;15.52;;;;;;;;;;5064506;28;20037;-77
2022/12/12 04:18:31;;;;;;;34.10;14.90;;;;;;;;;;5068442;28;20047;-77
2022/12/12 04:24:10;;;;;;;31.40;14.55;;;;;;;;;;5045365;28;20093;-77
2022/12/12 04:26:38;;;;;;;31.75;14.77;;;;;;;;;;5072342;28;20040;-77
2022/12/12 04:29:23;;;;;;;31.08;14.40;;;;;;;;;;5071910;28;20048;-77
2022/12/12 04:32:01;;;;;;;33.80;15.32;;;;;;;;;;5069412;28;20123;-77
2022/12/12 04:34:30;;;;;;;32.58;14.63;;;;;;;;;;5051765;28;20129;-77
2022/12/12 04:36:57;;;;;;;30.88;13.82;;;;;;;;;;5069984;28;20046;-77
2022/12/12 04:39:24;;;;;;;31.35;14.98;;;;;;;;;;5071182;28;20044;-77
2022/12/12 04:41:52;;;;;;;29.58;14.70;;;;;;;;;;5072044;28;20566;-77
2022/12/12 04:44:20;;;;;;;31.35;14.88;;;;;;;;;;5070843;28;20036;-77
2022/12/12 04:46:47;;;;;;;33.25;14.02;;;;;;;;;;5058279;28;20040;-77
2022/12/12 04:49:15;;;;;;;31.17;14.90;;;;;;;;;;5071278;28;20051;-77
2022/12/12 04:51:44;;;;;;;28.83;13.68;;;;;;;;;;5055243;28;20559;-76
2022/12/12 04:54:10;;;;;;;32.83;14.90;;;;;;;;;;5071237;28;20032;-76
2022/12/12 04:56:37;;;;;;;34.08;14.15;;;;;;;;;;5071555;28;20047;-77
2022/12/12 04:59:04;;;;;;;29.65;14.25;;;;;;;;;;5068613;28;20378;-76
2022/12/12 05:01:33;;;;;;;31.55;13.27;;;;;;;;;;5042661;28;20538;-77
2022/12/12 05:04:12;;;;;;;27.95;13.93;;;;;;;;;;5046391;28;20029;-76
2022/12/12 05:06:44;;;;;;;30.67;14.63;;;;;;;;;;5040483;28;20037;-77
2022/12/12 05:09:12;;;;;;;31.60;13.68;;;;;;;;;;5051535;28;20049;-77
2022/12/12 05:11:38;;;;;;;29.08;13.85;;;;;;;;;;5051352;28;20059;-77
2022/12/12 05:14:07;;;;;;;29.98;13.82;;;;;;;;;;5051234;28;20067;-77
2022/12/12 05:16:37;;;;;;;29.35;14.40;;;;;;;;;;5068756;28;20127;-77
2022/12/12 05:19:04;;;;;;;28.10;13.93;;;;;;;;;;5071284;28;20197;-77
2022/12/12 05:21:30;;;;;;;32.60;14.93;;;;;;;;;;5070818;28;20044;-77
2022/12/12 05:23:56;;;;;;;33.33;15.43;;;;;;;;;;5051307;28;20486;-77
2022/12/12 05:26:24;;;;;;;30.50;14.30;;;;;;;;;;5064560;28;20063;-77
2022/12/12 05:28:50;;;;;;;29.58;13.93;;;;;;;;;;5070880;28;20037;-77
2022/12/12 05:31:17;;;;;;;32.33;14.57;;;;;;;;;;5070691;28;20040;-77
2022/12/12 05:33:43;;;;;;;32.83;14.43;;;;;;;;;;5068908;28;20040;-77
2022/12/12 05:36:10;;;;;;;30.05;13.90;;;;;;;;;;5070976;28;20075;-77
2022/12/12 05:38:36;;;;;;;30.10;13.68;;;;;;;;;;5070668;28;20033;-77
2022/12/12 05:41:02;;;;;;;28.45;13.65;;;;;;;;;;5054167;28;20048;-77
2022/12/12 05:43:29;;;;;;;31.38;14.27;;;;;;;;;;5070421;28;20036;-77
2022/12/12 05:45:55;;;;;;;31.63;14.00;;;;;;;;;;5070812;28;20070;-77
2022/12/12 05:48:21;;;;;;;34.13;14.00;;;;;;;;;;5071765;28;20044;-77
2022/12/12 05:50:47;;;;;;;28.58;13.45;;;;;;;;;;5037518;28;20032;-77
2022/12/12 05:53:13;;;;;;;30.52;13.50;;;;;;;;;;5071138;28;20084;-77
2022/12/12 05:55:39;;;;;;;30.63;14.25;;;;;;;;;;5054118;28;20048;-77
2022/12/12 05:58:05;;;;;;;30.08;13.40;;;;;;;;;;5058518;28;20060;-77
2022/12/12 06:00:31;;;;;;;31.45;14.15;;;;;;;;;;5074467;28;20051;-77
2022/12/12 06:02:57;;;;;;;31.17;14.48;;;;;;;;;;5075321;28;20533;-77
2022/12/12 06:05:23;;;;;;;31.23;13.88;;;;;;;;;;5074677;28;20463;-76
2022/12/12 06:07:49;;;;;;;28.63;13.20;;;;;;;;;;5074902;28;20036;-76
2022/12/12 06:10:15;;;;;;;31.00;14.68;;;;;;;;;;5074623;28;20049;-76
2022/12/12 06:12:41;;;;;;;34.55;15.00;;;;;;;;;;5060091;28;20067;-76
2022/12/12 06:15:08;;;;;;;33.35;14.48;;;;;;;;;;5075810;28;20059;-76
2022/12/12 06:17:34;;;;;;;30.55;13.48;;;;;;;;;;5063493;28;20448;-76
2022/12/12 06:20:00;;;;;;;32.30;14.32;;;;;;;;;;5068763;28;20044;-77
2022/12/12 06:22:26;;;;;;;30.40;14.60;;;;;;;;;;5054505;28;20087;-76
2022/12/12 06:24:52;;;;;;;31.10;13.85;;;;;;;;;;5071277;28;20047;-76
2022/12/12 06:27:18;;;;;;;32.20;14.18;;;;;;;;;;5057896;28;20055;-76
2022/12/12 06:29:44;;;;;;;33.35;13.85;;;;;;;;;;5075962;28;20041;-76
2022/12/12 06:32:10;;;;;;;29.45;14.57;;;;;;;;;;5057979;28;20378;-76
2022/12/12 06:34:40;;;;;;;33.50;14.70;;;;;;;;;;5071630;28;20044;-76
2022/12/12 06:37:06;;;;;;;30.52;13.98;;;;;;;;;;5070395;28;20520;-76
2022/12/12 06:39:32;;;;;;;31.63;14.00;;;;;;;;;;5063768;28;20071;-76
2022/12/12 06:41:58;;;;;;;30.55;14.23;;;;;;;;;;5073917;28;20052;-76
2022/12/12 06:44:24;;;;;;;30.92;14.18;;;;;;;;;;5073632;28;20120;-76
2022/12/12 06:46:50;;;;;;;29.98;12.98;;;;;;;;;;5060165;28;20041;-76
2022/12/12 06:49:16;;;;;;;28.35;12.68;;;;;;;;;;5067778;28;20073;-77
2022/12/12 06:51:43;;;;;;;37.75;16.85;;;;;;;;;;5055189;28;20083;-77
2022/12/12 06:54:13;;;;;;;30.52;13.43;;;;;;;;;;5072473;28;20037;-77
2022/12/12 06:56:40;;;;;;;27.60;12.85;;;;;;;;;;5062591;28;20076;-78
2022/12/12 06:59:06;;;;;;;30.73;13.63;;;;;;;;;;5070881;28;20028;-77
2022/12/12 07:01:32;;;;;;;33.47;14.55;;;;;;;;;;5073457;28;20044;-77
2022/12/12 07:03:58;;;;;;;26.83;13.27;;;;;;;;;;5073818;28;20044;-77
2022/12/12 07:06:25;;;;;;;27.38;12.98;;;;;;;;;;5073410;28;20040;-77
2022/12/12 07:08:51;;;;;;;27.17;12.43;;;;;;;;;;5073594;28;20128;-78
2022/12/12 07:11:20;;;;;;;25.45;12.27;;;;;;;;;;5072477;28;20053;-78
2022/12/12 07:13:46;;;;;;;29.48;13.38;;;;;;;;;;5065408;28;20045;-78
2022/12/12 07:16:13;;;;;;;29.48;12.45;;;;;;;;;;5066677;28;20071;-77
2022/12/12 07:18:39;;;;;;;30.63;12.98;;;;;;;;;;5053505;28;20029;-77
2022/12/12 07:21:06;;;;;;;32.17;13.73;;;;;;;;;;5054128;28;20124;-78
2022/12/12 07:23:32;;;;;;;29.25;13.63;;;;;;;;;;5070692;28;20114;-78
2022/12/12 07:25:58;;;;;;;30.55;13.57;;;;;;;;;;5062102;28;20049;-77
2022/12/12 07:28:24;;;;;;;29.70;13.48;;;;;;;;;;5068580;28;20040;-78
2022/12/12 07:30:50;;;;;;;29.92;13.88;;;;;;;;;;5072045;28;20043;-78
2022/12/12 07:33:17;;;;;;;31.17;13.20;;;;;;;;;;5070078;28;20127;-78
2022/12/12 07:35:43;;;;;;;28.67;13.15;;;;;;;;;;5071972;28;20118;-77
2022/12/12 07:38:10;;;;;;;28.88;13.18;;;;;;;;;;5072460;28;20508;-77
2022/12/12 07:40:36;;;;;;;28.83;13.57;;;;;;;;;;5054100;28;20052;-77
2022/12/12 07:43:03;;;;;;;29.77;13.18;;;;;;;;;;5063461;28;20605;-77
2022/12/12 07:45:29;;;;;;;28.90;13.88;;;;;;;;;;5057798;28;20045;-77
2022/12/12 07:47:55;;;;;;;31.98;13.93;;;;;;;;;;5106442;28;20113;-77
2022/12/12 07:50:21;;;;;;;31.05;13.30;;;;;;;;;;5055577;28;20044;-77
2022/12/12 07:52:47;;;;;;;29.67;13.82;;;;;;;;;;5072223;28;20110;-77
2022/12/12 07:55:14;;;;;;;32.53;14.18;;;;;;;;;;5059245;28;20052;-77
2022/12/12 07:57:40;;;;;;;32.95;14.13;;;;;;;;;;5056737;28;20036;-77
2022/12/12 08:00:07;;;;;;;29.35;13.23;;;;;;;;;;5071522;28;20123;-78
2022/12/12 08:02:33;;;;;;;28.98;13.90;;;;;;;;;;5057305;28;20396;-78
2022/12/12 08:04:59;;;;;;;30.38;13.70;;;;;;;;;;5071910;28;20404;-77
2022/12/12 08:07:25;;;;;;;28.75;13.23;;;;;;;;;;5070322;28;20549;-77
2022/12/12 08:09:51;;;;;;;31.20;13.85;;;;;;;;;;4995189;28;1136163;-77
2022/12/12 08:12:17;;;;;;;29.77;13.68;;;;;;;;;;5049758;28;20497;-77
2022/12/12 08:14:43;;;;;;;28.88;13.77;;;;;;;;;;5058448;28;20473;-77
2022/12/12 08:17:10;;;;;;;33.55;14.48;;;;;;;;;;5047945;28;20044;-77
2022/12/12 08:19:36;;;;;;;27.10;13.48;;;;;;;;;;5052445;28;20041;-77
2022/12/12 08:22:02;;;;;;;29.73;13.32;;;;;;;;;;5027689;28;20046;-78
2022/12/12 08:24:28;;;;;;;31.45;13.90;;;;;;;;;;5072216;28;20072;-78
2022/12/12 08:26:54;;;;;;;31.13;13.80;;;;;;;;;;5072215;28;20048;-78
2022/12/12 08:29:20;;;;;;;32.55;13.95;;;;;;;;;;5063330;28;20053;-78
2022/12/12 08:31:47;;;;;;;30.25;13.32;;;;;;;;;;5065561;28;20076;-78
2022/12/12 08:34:13;;;;;;;34.45;13.00;;;;;;;;;;5052083;28;20049;-78
2022/12/12 08:36:39;;;;;;;28.77;13.88;;;;;;;;;;5052043;28;20510;-77
2022/12/12 08:39:06;;;;;;;29.08;13.40;;;;;;;;;;5071851;28;20045;-76
2022/12/12 08:41:33;;;;;;;27.02;12.80;;;;;;;;;;5042941;28;20044;-75
2022/12/12 08:43:59;;;;;;;27.92;13.48;;;;;;;;;;5070285;28;20037;-75
2022/12/12 08:46:25;;;;;;;28.80;13.65;;;;;;;;;;5061013;28;20075;-75
2022/12/12 08:48:51;;;;;;;31.95;14.13;;;;;;;;;;5065404;28;20036;-75
2022/12/12 08:51:18;;;;;;;29.45;13.20;;;;;;;;;;5043979;28;20141;-75
2022/12/12 08:53:45;;;;;;;30.67;13.80;;;;;;;;;;5057207;28;20191;-78
2022/12/12 08:56:11;;;;;;;31.67;13.75;;;;;;;;;;5064486;28;20045;-77
2022/12/12 08:58:37;;;;;;;30.83;13.00;;;;;;;;;;5047562;28;20053;-78
2022/12/12 09:01:08;;;;;;;28.77;13.07;;;;;;;;;;5071653;28;20493;-78
2022/12/12 09:03:34;;;;;;;31.73;14.80;;;;;;;;;;5072969;28;20404;-77
2022/12/12 09:06:00;;;;;;;28.08;13.50;;;;;;;;;;5050828;28;20375;-77
2022/12/12 09:08:27;;;;;;;32.42;14.27;;;;;;;;;;5051378;28;20080;-77
2022/12/12 09:10:53;;;;;;;31.05;13.82;;;;;;;;;;5053995;28;20139;-77
2022/12/12 09:13:19;;;;;;;30.27;13.82;;;;;;;;;;5063662;28;20501;-78
2022/12/12 09:15:49;;;;;;;31.40;13.82;;;;;;;;;;5061260;28;20101;-77
2022/12/12 09:18:15;;;;;;;30.30;14.23;;;;;;;;;;5071198;28;20044;-77
2022/12/12 09:20:41;;;;;;;31.25;14.43;;;;;;;;;;5045859;28;20436;-78
2022/12/12 09:23:07;;;;;;;31.88;14.85;;;;;;;;;;5049891;28;20172;-78
2022/12/12 09:25:34;;;;;;;30.98;14.32;;;;;;;;;;5071783;28;20037;-78
2022/12/12 09:28:00;;;;;;;28.42;12.85;;;;;;;;;;5070961;28;20048;-78
2022/12/12 09:30:26;;;;;;;34.85;14.15;;;;;;;;;;5071429;28;20129;-78
2022/12/12 09:32:52;;;;;;;31.77;14.57;;;;;;;;;;5071223;28;20041;-78
2022/12/12 09:35:18;;;;;;;30.52;14.65;;;;;;;;;;5071280;28;20105;-78
2022/12/12 09:37:44;;;;;;;33.45;15.55;;;;;;;;;;5037722;28;20124;-78
2022/12/12 09:40:15;;;;;;;30.13;14.65;;;;;;;;;;5071242;28;20036;-77
2022/12/12 09:42:46;;;;;;;31.52;14.30;;;;;;;;;;5071453;28;20871;-77
2022/12/12 09:45:12;;;;;;;33.95;15.10;;;;;;;;;;5071455;28;20127;-78
2022/12/12 09:47:42;;;;;;;32.60;14.63;;;;;;;;;;5064361;28;20090;-77
2022/12/12 09:50:21;;;;;;;36.22;15.48;;;;;;;;;;5064444;28;20123;-77
2022/12/12 09:52:47;;;;;;;36.72;15.13;;;;;;;;;;5045326;28;20033;-77
2022/12/12 09:55:16;;;;;;;33.03;15.85;;;;;;;;;;5071260;28;20048;-77
2022/12/12 09:57:55;;;;;;;36.97;17.98;;;;;;;;;;5065375;28;20043;-78
2022/12/12 10:00:21;;;;;;;32.28;14.80;;;;;;;;;;5051205;28;20033;-78
2022/12/12 10:02:53;;;;;;;35.50;16.20;;;;;;;;;;5070111;28;20086;-78
2022/12/12 10:05:19;;;;;;;66.72;27.45;;;;;;;;;;5071455;28;20049;-78
2022/12/12 10:07:54;;;;;;;39.95;18.40;;;;;;;;;;5072126;28;20489;-77
2022/12/12 10:10:37;;;;;;;40.58;18.13;;;;;;;;;;5070985;28;20044;-77
2022/12/12 10:13:06;;;;;;;34.58;16.13;;;;;;;;;;5040520;28;20054;-77
2022/12/12 10:15:44;;;;;;;36.67;17.75;;;;;;;;;;5050775;28;20116;-77
2022/12/12 10:18:20;;;;;;;43.67;19.17;;;;;;;;;;5083531;28;20048;-77
2022/12/12 10:20:46;;;;;;;;;;;;;;;;;;5054430;28;20480;-78
2022/12/12 10:23:15;;;;;;;39.60;17.45;;;;;;;;;;5069234;28;19920;-78
2022/12/12 10:25:54;;;;;;;35.63;17.02;;;;;;;;;;5059570;28;20045;-77
2022/12/12 10:28:20;;;;;;;35.67;17.10;;;;;;;;;;5054717;28;20040;-78
2022/12/12 10:30:50;;;;;;;37.35;17.45;;;;;;;;;;5062181;28;20058;-77
2022/12/12 10:33:22;;;;;;;37.13;17.35;;;;;;;;;;5068363;28;20052;-78
2022/12/12 10:36:03;;;;;;;40.95;20.02;;;;;;;;;;5063328;28;20116;-77
2022/12/12 10:38:37;;;;;;;36.70;17.45;;;;;;;;;;5082753;28;20364;-77
2022/12/12 10:41:09;;;;;;;40.55;17.40;;;;;;;;;;5053941;28;20040;-78
2022/12/12 10:43:45;;;;;;;40.20;18.00;;;;;;;;;;5059543;28;20036;-77
2022/12/12 10:46:11;;;;;;;39.00;17.88;;;;;;;;;;5074238;28;20046;-77
2022/12/12 10:48:38;;;;;;;43.40;18.80;;;;;;;;;;5074168;28;20052;-77
2022/12/12 10:51:06;;;;;;;37.30;17.65;;;;;;;;;;5075151;28;20098;-77
2022/12/12 10:53:32;;;;;;;36.13;17.02;;;;;;;;;;5044119;28;20040;-77
2022/12/12 10:56:00;;;;;;;39.20;17.95;;;;;;;;;;5073294;28;20036;-78
2022/12/12 10:58:27;;;;;;;39.55;18.95;;;;;;;;;;5075158;28;20048;-78
2022/12/12 11:01:01;;;;;;;39.17;18.27;;;;;;;;;;5059187;28;20043;-77
2022/12/12 11:03:29;;;;;;;37.28;17.65;;;;;;;;;;5073690;28;20472;-77
2022/12/12 11:05:56;;;;;;;41.47;19.50;;;;;;;;;;5071709;28;20045;-77
2022/12/12 11:08:26;;;;;;;37.30;17.65;;;;;;;;;;5064516;28;20047;-77
2022/12/12 11:11:03;;;;;;;40.35;19.52;;;;;;;;;;5059411;28;20053;-77
2022/12/12 11:13:30;;;;;;;39.03;17.80;;;;;;;;;;5067877;28;20041;-77
2022/12/12 11:15:58;;;;;;;40.85;19.67;;;;;;;;;;5065105;28;20072;-77
2022/12/12 11:18:24;;;;;;;42.97;19.63;;;;;;;;;;5074681;28;20400;-77
2022/12/12 11:20:55;;;;;;;41.70;19.13;;;;;;;;;;5073723;28;20028;-78
2022/12/12 11:23:25;;;;;;;45.65;19.92;;;;;;;;;;5074260;28;20461;-78
2022/12/12 11:25:56;;;;;;;45.55;20.60;;;;;;;;;;5073634;28;20496;-77
2022/12/12 11:28:23;;;;;;;43.08;20.48;;;;;;;;;;5073730;28;20489;-77
2022/12/12 11:30:51;;;;;;;42.75;19.83;;;;;;;;;;5073408;28;20127;-77
2022/12/12 11:33:30;;;;;;;40.53;18.98;;;;;;;;;;5070705;28;20068;-77
2022/12/12 11:35:56;;;;;;;37.80;18.15;;;;;;;;;;5073137;28;20037;-78
2022/12/12 11:38:26;;;;;;;39.20;18.85;;;;;;;;;;5073383;28;20150;-78
2022/12/12 11:40:58;;;;;;;43.05;20.77;;;;;;;;;;5073319;28;20485;-77
2022/12/12 11:43:25;;;;;;;41.15;19.88;;;;;;;;;;5073445;28;20437;-76
2022/12/12 11:45:59;;;;;;;43.58;20.70;;;;;;;;;;5073427;28;20477;-77
2022/12/12 11:48:31;;;;;;;43.83;20.40;;;;;;;;;;5059758;28;20072;-76
2022/12/12 11:50:57;;;;;;;40.22;19.00;;;;;;;;;;5052648;28;20060;-76
2022/12/12 11:53:23;;;;;;;38.30;18.95;;;;;;;;;;5047544;28;20080;-76
2022/12/12 11:55:49;;;;;;;42.58;19.58;;;;;;;;;;5072721;28;20040;-76
2022/12/12 11:58:25;;;;;;;46.65;21.50;;;;;;;;;;5073805;28;20123;-76
2022/12/12 12:00:57;;;;;;;41.50;19.50;;;;;;;;;;5089650;28;20042;-76
2022/12/12 12:03:42;;;;;;;44.63;20.88;;;;;;;;;;5072779;28;20500;-76
2022/12/12 12:06:31;;;;;;;42.72;20.00;;;;;;;;;;5072363;28;20416;-77
2022/12/12 12:09:09;;;;;;;36.33;18.25;;;;;;;;;;5064667;28;20134;-76
2022/12/12 12:11:45;;;;;;;39.97;19.77;;;;;;;;;;5064674;28;20544;-77
2022/12/12 12:14:21;;;;;;;39.60;19.23;;;;;;;;;;5056118;28;20063;-76
2022/12/12 12:17:06;;;;;;;44.50;20.63;;;;;;;;;;5071498;28;20283;-77
2022/12/12 12:19:51;;;;;;;37.45;18.92;;;;;;;;;;5058775;28;20057;-76
2022/12/12 12:22:26;;;;;;;38.50;18.40;;;;;;;;;;5048276;28;20033;-76
2022/12/12 12:24:55;;;;;;;29.67;14.93;;;;;;;;;;5059953;28;20072;-76
2022/12/12 12:27:24;;;;;;;39.17;19.13;;;;;;;;;;5065505;28;20055;-77
2022/12/12 12:30:03;;;;;;;35.55;19.30;;;;;;;;;;5066664;28;20040;-76
2022/12/12 12:32:45;;;;;;;36.25;18.65;;;;;;;;;;5047734;28;20041;-76
2022/12/12 12:35:28;;;;;;;42.63;20.00;;;;;;;;;;5068078;28;20037;-77
2022/12/12 12:38:00;;;;;;;42.35;20.10;;;;;;;;;;5072349;28;20062;-77
2022/12/12 12:40:42;;;;;;;43.05;21.70;;;;;;;;;;5072034;28;20494;-77
2022/12/12 12:43:14;;;;;;;44.85;21.73;;;;;;;;;;5071842;28;20051;-77
2022/12/12 12:45:45;;;;;;;40.58;20.17;;;;;;;;;;5058280;28;20449;-77
2022/12/12 12:48:43;;;;;;;40.67;20.05;;;;;;;;;;5071832;28;20485;-77
2022/12/12 12:51:22;;;;;;;43.35;20.88;;;;;;;;;;5039059;28;20101;-77
2022/12/12 12:53:51;;;;;;;41.75;20.10;;;;;;;;;;5055465;28;20051;-77
2022/12/12 12:56:21;;;;;;;39.70;20.65;;;;;;;;;;5072871;28;20102;-77
2022/12/12 12:58:48;;;;;;;38.90;19.65;;;;;;;;;;5072053;28;20455;-77
2022/12/12 13:01:17;;;;;;;38.30;18.50;;;;;;;;;;5071062;28;20040;-78
2022/12/12 13:03:50;;;;;;;42.53;20.98;;;;;;;;;;5041817;28;20065;-77
2022/12/12 13:06:20;;;;;;;42.03;20.27;;;;;;;;;;5043413;28;20040;-77
2022/12/12 13:08:55;;;;;;;36.22;18.70;;;;;;;;;;5071332;28;20048;-77
2022/12/12 13:11:26;;;;;;;38.53;18.47;;;;;;;;;;5070831;28;20049;-78
2022/12/12 13:13:54;;;;;;;34.78;16.30;;;;;;;;;;5058640;28;20076;-77
2022/12/12 13:16:24;;;;;;;39.55;20.00;;;;;;;;;;5066389;28;20486;-77
2022/12/12 13:19:02;;;;;;;41.05;20.13;;;;;;;;;;5071329;28;20045;-77
2022/12/12 13:21:35;;;;;;;42.72;19.58;;;;;;;;;;5071099;28;20040;-78
2022/12/12 13:24:05;;;;;;;45.53;21.13;;;;;;;;;;5072671;28;20058;-77
2022/12/12 13:26:50;;;;;;;42.80;21.65;;;;;;;;;;5056874;28;20520;-76
2022/12/12 13:29:35;;;;;;;40.42;18.92;;;;;;;;;;5071037;28;20044;-77
2022/12/12 13:32:16;;;;;;;43.67;21.50;;;;;;;;;;5071123;28;20045;-77
2022/12/12 13:34:47;;;;;;;45.92;22.85;;;;;;;;;;5056955;28;20052;-77
2022/12/12 13:37:16;;;;;;;48.70;22.88;;;;;;;;;;5065015;28;20401;-77
2022/12/12 13:39:43;;;;;;;44.42;21.85;;;;;;;;;;5051090;28;20094;-77
2022/12/12 13:42:10;;;;;;;46.25;21.98;;;;;;;;;;5054853;28;20489;-76
2022/12/12 13:44:38;;;;;;;41.80;21.33;;;;;;;;;;5071101;28;20040;-77
2022/12/12 13:47:10;;;;;;;40.88;20.88;;;;;;;;;;5070871;28;20070;-77
2022/12/12 13:49:53;;;;;;;43.85;21.88;;;;;;;;;;5045391;28;20048;-77
2022/12/12 13:52:22;;;;;;;42.95;21.23;;;;;;;;;;5067731;28;20083;-77
2022/12/12 13:54:49;;;;;;;40.33;20.13;;;;;;;;;;5044838;28;20493;-77
2022/12/12 13:57:21;;;;;;;43.17;21.00;;;;;;;;;;5064612;28;20079;-77
2022/12/12 13:59:53;;;;;;;39.38;19.23;;;;;;;;;;5050851;28;20051;-77
2022/12/12 14:02:23;;;;;;;42.78;19.40;;;;;;;;;;5049295;28;20043;-77
2022/12/12 14:05:05;;;;;;;42.17;20.65;;;;;;;;;;5070931;28;20032;-77
2022/12/12 14:07:31;;;;;;;42.50;19.65;;;;;;;;;;5070237;28;20044;-77
2022/12/12 14:09:58;;;;;;;43.30;22.13;;;;;;;;;;5062398;28;20116;-77
2022/12/12 14:12:26;;;;;;;41.40;20.92;;;;;;;;;;5065026;28;20049;-77
2022/12/12 14:14:56;;;;;;;38.30;20.00;;;;;;;;;;5067907;28;20048;-77
2022/12/12 14:17:23;;;;;;;42.08;19.52;;;;;;;;;;5044959;28;20109;-77
2022/12/12 14:19:51;;;;;;;40.90;19.05;;;;;;;;;;5074427;28;20421;-77
2022/12/12 14:22:49;;;;;;;37.85;18.38;;;;;;;;;;5055502;28;20497;-77
2022/12/12 14:25:16;;;;;;;47.38;21.55;;;;;;;;;;5072953;28;20040;-77
2022/12/12 14:27:48;;;;;;;43.30;19.33;;;;;;;;;;5075823;28;20040;-77
2022/12/12 14:30:25;;;;;;;39.10;18.85;;;;;;;;;;5057891;28;20484;-77
2022/12/12 14:32:59;;;;;;;46.35;20.08;;;;;;;;;;5074285;28;20040;-77
2022/12/12 14:35:36;;;;;;;41.05;19.85;;;;;;;;;;5053172;28;20448;-77
2022/12/12 14:38:06;;;;;;;41.50;21.35;;;;;;;;;;5065913;28;20123;-77
2022/12/12 14:40:38;;;;;;;41.30;21.10;;;;;;;;;;5074060;28;20551;-77